createdAt,value
2016-02-01T00:00:08.551Z,985.82
2016-02-01T00:01:08.538Z,985.8
2016-02-01T00:02:08.541Z,985.79
2016-02-01T00:03:08.543Z,985.78
2016-02-01T00:04:08.534Z,985.81
2016-02-01T00:05:08.537Z,985.83
2016-02-01T00:06:08.539Z,985.82
2016-02-01T00:07:08.526Z,985.83
2016-02-01T00:08:08.529Z,985.83
2016-02-01T00:09:08.531Z,985.79
2016-02-01T00:10:08.519Z,985.78
2016-02-01T00:11:08.522Z,985.8
2016-02-01T00:12:08.525Z,985.79
2016-02-01T00:13:08.511Z,985.82
2016-02-01T00:14:08.514Z,985.85
2016-02-01T00:15:08.517Z,985.85
2016-02-01T00:16:08.504Z,985.86
2016-02-01T00:17:08.506Z,985.89
2016-02-01T00:18:08.509Z,985.94
2016-02-01T00:19:08.512Z,985.95
2016-02-01T00:20:08.501Z,985.91
2016-02-01T00:21:08.499Z,985.91
2016-02-01T00:22:08.502Z,985.84
2016-02-01T00:23:08.488Z,985.81
2016-02-01T00:24:08.491Z,985.78
2016-02-01T00:25:08.491Z,985.78
2016-02-01T00:26:08.462Z,985.78
2016-02-01T00:27:08.450Z,985.78
2016-02-01T00:28:08.438Z,985.85
2016-02-01T00:29:08.426Z,985.83
2016-02-01T00:30:08.400Z,985.86
2016-02-01T00:31:08.397Z,985.84
2016-02-01T00:32:08.394Z,985.86
2016-02-01T00:33:08.376Z,985.84
2016-02-01T00:34:08.374Z,985.84
2016-02-01T00:35:08.371Z,985.85
2016-02-01T00:36:08.357Z,985.94
2016-02-01T00:37:08.358Z,985.93
2016-02-01T00:38:08.358Z,985.94
2016-02-01T00:39:08.343Z,985.93
2016-02-01T00:40:08.347Z,985.86
2016-02-01T00:41:08.348Z,985.85
2016-02-01T00:42:08.335Z,985.85
2016-02-01T00:43:08.337Z,985.83
2016-02-01T00:44:08.338Z,985.88
2016-02-01T00:45:08.326Z,985.85
2016-02-01T00:46:08.329Z,985.87
2016-02-01T00:47:08.331Z,985.88
2016-02-01T00:48:08.335Z,985.9
2016-02-01T00:49:08.323Z,985.93
2016-02-01T00:50:08.326Z,985.94
2016-02-01T00:51:08.312Z,985.97
2016-02-01T00:52:08.331Z,985.96
2016-02-01T00:53:08.318Z,985.98
2016-02-01T00:54:08.309Z,986.02
2016-02-01T00:55:08.312Z,986.03
2016-02-01T00:56:08.300Z,986.08
2016-02-01T00:57:08.304Z,986.09
2016-02-01T00:58:08.306Z,986.06
2016-02-01T00:59:08.308Z,986.07
2016-02-01T01:00:08.295Z,986.14
2016-02-01T01:01:08.299Z,986.05
2016-02-01T01:02:08.287Z,986.14
2016-02-01T01:03:08.290Z,986.09
2016-02-01T01:04:08.292Z,986.09
2016-02-01T01:05:08.282Z,986.07
2016-02-01T01:06:08.285Z,986.1
2016-02-01T01:07:08.287Z,986.1
2016-02-01T01:08:08.274Z,986.13
2016-02-01T01:09:08.277Z,986.15
2016-02-01T01:10:08.283Z,986.18
2016-02-01T01:11:08.271Z,986.16
2016-02-01T01:12:08.274Z,986.21
2016-02-01T01:13:08.277Z,986.23
2016-02-01T01:14:08.264Z,986.19
2016-02-01T01:15:08.267Z,986.15
2016-02-01T01:16:08.269Z,986.19
2016-02-01T01:17:08.272Z,986.2
2016-02-01T01:18:08.259Z,986.26
2016-02-01T01:19:08.261Z,986.25
2016-02-01T01:20:08.249Z,986.27
2016-02-01T01:21:08.256Z,986.29
2016-02-01T01:22:08.274Z,986.31
2016-02-01T01:23:08.246Z,986.29
2016-02-01T01:24:08.249Z,986.34
2016-02-01T01:25:08.251Z,986.35
2016-02-01T01:26:08.238Z,986.33
2016-02-01T01:27:08.241Z,986.35
2016-02-01T01:28:08.244Z,986.33
2016-02-01T01:29:08.231Z,986.35
2016-02-01T01:30:08.235Z,986.35
2016-02-01T01:31:08.238Z,986.4
2016-02-01T01:32:08.225Z,986.4
2016-02-01T01:33:08.227Z,986.43
2016-02-01T01:34:08.231Z,986.45
2016-02-01T01:35:08.218Z,986.46
2016-02-01T01:36:08.220Z,986.43
2016-02-01T01:37:08.223Z,986.47
2016-02-01T01:38:08.211Z,986.56
2016-02-01T01:39:08.215Z,986.53
2016-02-01T01:40:08.217Z,986.51
2016-02-01T01:41:08.207Z,986.5
2016-02-01T01:42:08.210Z,986.56
2016-02-01T01:43:08.212Z,986.58
2016-02-01T01:44:08.199Z,986.56
2016-02-01T01:45:08.202Z,986.57
2016-02-01T01:46:08.189Z,986.62
2016-02-01T01:47:08.192Z,986.63
2016-02-01T01:48:08.195Z,986.62
2016-02-01T01:49:08.198Z,986.67
2016-02-01T01:50:08.185Z,986.7
2016-02-01T01:51:08.191Z,986.69
2016-02-01T01:52:08.209Z,986.67
2016-02-01T01:53:08.180Z,986.68
2016-02-01T01:54:08.183Z,986.72
2016-02-01T01:55:08.187Z,986.74
2016-02-01T01:56:08.174Z,986.76
2016-02-01T01:57:08.177Z,986.75
2016-02-01T01:58:08.164Z,986.76
2016-02-01T01:59:08.171Z,986.77
2016-02-01T02:00:08.158Z,986.79
2016-02-01T02:01:08.162Z,986.8
2016-02-01T02:02:08.165Z,986.81
2016-02-01T02:03:08.167Z,986.8
2016-02-01T02:04:08.155Z,986.81
2016-02-01T02:05:08.163Z,986.82
2016-02-01T02:06:08.151Z,986.73
2016-02-01T02:07:08.155Z,986.72
2016-02-01T02:08:08.157Z,986.75
2016-02-01T02:09:08.144Z,986.74
2016-02-01T02:10:08.147Z,986.73
2016-02-01T02:11:08.150Z,986.76
2016-02-01T02:12:08.139Z,986.78
2016-02-01T02:13:08.142Z,986.79
2016-02-01T02:14:08.144Z,986.83
2016-02-01T02:15:08.132Z,986.82
2016-02-01T02:16:08.135Z,986.87
2016-02-01T02:17:08.138Z,986.88
2016-02-01T02:18:08.141Z,986.91
2016-02-01T02:19:08.127Z,986.92
2016-02-01T02:20:08.130Z,986.92
2016-02-01T02:21:08.133Z,986.93
2016-02-01T02:22:08.135Z,986.92
2016-02-01T02:23:08.123Z,986.95
2016-02-01T02:24:08.127Z,987
2016-02-01T02:25:08.113Z,987.06
2016-02-01T02:26:08.117Z,987.06
2016-02-01T02:27:08.120Z,987.1
2016-02-01T02:28:08.104Z,987.16
2016-02-01T02:29:08.106Z,987.15
2016-02-01T02:30:08.109Z,987.15
2016-02-01T02:31:08.100Z,987.19
2016-02-01T02:32:08.102Z,987.22
2016-02-01T02:33:08.089Z,987.17
2016-02-01T02:34:08.092Z,987.22
2016-02-01T02:35:08.095Z,987.19
2016-02-01T02:36:08.098Z,987.24
2016-02-01T02:37:08.086Z,987.18
2016-02-01T02:38:08.088Z,987.23
2016-02-01T02:39:08.091Z,987.23
2016-02-01T02:40:08.083Z,987.27
2016-02-01T02:41:08.085Z,987.23
2016-02-01T02:42:08.089Z,987.28
2016-02-01T02:43:08.075Z,987.28
2016-02-01T02:44:08.079Z,987.29
2016-02-01T02:45:08.081Z,987.3
2016-02-01T02:46:08.070Z,987.3
2016-02-01T02:47:08.073Z,987.29
2016-02-01T02:48:08.075Z,987.25
2016-02-01T02:49:08.063Z,987.26
2016-02-01T02:50:08.066Z,987.36
2016-02-01T02:51:08.064Z,987.37
2016-02-01T02:52:08.066Z,987.4
2016-02-01T02:53:08.055Z,987.35
2016-02-01T02:54:08.058Z,987.43
2016-02-01T02:55:08.048Z,987.44
2016-02-01T02:56:08.065Z,987.45
2016-02-01T02:57:08.053Z,987.48
2016-02-01T02:58:08.056Z,987.48
2016-02-01T02:59:08.058Z,987.5
2016-02-01T03:00:08.046Z,987.48
2016-02-01T03:01:08.049Z,987.52
2016-02-01T03:02:08.036Z,987.48
2016-02-01T03:03:08.038Z,987.56
2016-02-01T03:04:08.029Z,987.59
2016-02-01T03:05:08.031Z,987.61
2016-02-01T03:06:08.034Z,987.61
2016-02-01T03:07:08.022Z,987.66
2016-02-01T03:08:08.055Z,987.72
2016-02-01T03:09:08.027Z,987.73
2016-02-01T03:10:08.014Z,987.77
2016-02-01T03:11:08.017Z,987.79
2016-02-01T03:12:08.020Z,987.77
2016-02-01T03:13:08.008Z,987.8
2016-02-01T03:14:08.011Z,987.78
2016-02-01T03:15:08.015Z,987.85
2016-02-01T03:16:08.019Z,987.89
2016-02-01T03:17:08.005Z,987.94
2016-02-01T03:18:08.008Z,987.98
2016-02-01T03:19:07.995Z,987.97
2016-02-01T03:20:08.001Z,987.99
2016-02-01T03:21:08.003Z,988.03
2016-02-01T03:22:07.991Z,988.07
2016-02-01T03:23:08.008Z,988.07
2016-02-01T03:24:07.996Z,988.11
2016-02-01T03:25:07.987Z,988.1
2016-02-01T03:26:07.989Z,988.11
2016-02-01T03:27:07.993Z,988.11
2016-02-01T03:28:07.980Z,988.14
2016-02-01T03:29:07.983Z,988.14
2016-02-01T03:30:07.986Z,988.14
2016-02-01T03:31:07.974Z,988.16
2016-02-01T03:32:07.976Z,988.17
2016-02-01T03:33:07.979Z,988.22
2016-02-01T03:34:07.966Z,988.28
2016-02-01T03:35:07.969Z,988.24
2016-02-01T03:36:07.956Z,988.25
2016-02-01T03:37:07.964Z,988.24
2016-02-01T03:38:07.967Z,988.22
2016-02-01T03:39:07.955Z,988.26
2016-02-01T03:40:07.960Z,988.3
2016-02-01T03:41:07.946Z,988.34
2016-02-01T03:42:07.950Z,988.39
2016-02-01T03:43:07.952Z,988.42
2016-02-01T03:44:07.955Z,988.45
2016-02-01T03:45:07.958Z,988.54
2016-02-01T03:46:07.944Z,988.5
2016-02-01T03:47:07.947Z,988.52
2016-02-01T03:48:07.950Z,988.49
2016-02-01T03:49:07.952Z,988.53
2016-02-01T03:50:07.940Z,988.59
2016-02-01T03:51:07.928Z,988.57
2016-02-01T03:52:07.935Z,988.58
2016-02-01T03:53:07.937Z,988.61
2016-02-01T03:54:07.924Z,988.63
2016-02-01T03:55:07.927Z,988.64
2016-02-01T03:56:07.931Z,988.69
2016-02-01T03:57:07.918Z,988.68
2016-02-01T03:58:07.920Z,988.78
2016-02-01T03:59:07.923Z,988.79
2016-02-01T04:00:07.926Z,988.81
2016-02-01T04:01:07.916Z,988.79
2016-02-01T04:02:07.950Z,988.8
2016-02-01T04:03:07.922Z,988.76
2016-02-01T04:04:07.909Z,988.79
2016-02-01T04:05:07.914Z,988.8
2016-02-01T04:06:07.902Z,988.86
2016-02-01T04:07:07.904Z,988.85
2016-02-01T04:08:07.907Z,988.9
2016-02-01T04:09:07.894Z,988.92
2016-02-01T04:10:07.896Z,988.92
2016-02-01T04:11:07.899Z,988.92
2016-02-01T04:12:07.886Z,988.96
2016-02-01T04:13:07.888Z,988.96
2016-02-01T04:14:07.891Z,988.98
2016-02-01T04:15:07.894Z,988.95
2016-02-01T04:16:07.896Z,988.96
2016-02-01T04:17:07.884Z,989
2016-02-01T04:18:07.887Z,988.97
2016-02-01T04:19:07.890Z,989.04
2016-02-01T04:20:07.874Z,989.07
2016-02-01T04:21:07.878Z,989.1
2016-02-01T04:22:07.881Z,989.11
2016-02-01T04:23:07.884Z,989.15
2016-02-01T04:24:07.872Z,989.18
2016-02-01T04:25:07.875Z,989.22
2016-02-01T04:26:07.862Z,989.19
2016-02-01T04:27:07.865Z,989.21
2016-02-01T04:28:07.868Z,989.24
2016-02-01T04:29:07.870Z,989.18
2016-02-01T04:30:07.860Z,989.23
2016-02-01T04:31:07.863Z,989.21
2016-02-01T04:32:07.851Z,989.23
2016-02-01T04:33:07.854Z,989.2
2016-02-01T04:34:07.856Z,989.19
2016-02-01T04:35:07.844Z,989.19
2016-02-01T04:36:07.846Z,989.26
2016-02-01T04:37:07.850Z,989.22
2016-02-01T04:38:07.853Z,989.26
2016-02-01T04:39:07.840Z,989.27
2016-02-01T04:40:07.920Z,989.27
2016-02-01T04:41:07.972Z,989.31
2016-02-01T04:42:08.131Z,989.3
2016-02-01T04:43:07.852Z,989.33
2016-02-01T04:44:07.840Z,989.36
2016-02-01T04:45:07.842Z,989.42
2016-02-01T04:46:07.846Z,989.35
2016-02-01T04:47:07.832Z,989.36
2016-02-01T04:48:07.835Z,989.37
2016-02-01T04:49:07.822Z,989.4
2016-02-01T04:50:07.826Z,989.39
2016-02-01T04:51:07.817Z,989.39
2016-02-01T04:52:07.820Z,989.39
2016-02-01T04:53:07.824Z,989.44
2016-02-01T04:54:07.810Z,989.42
2016-02-01T04:55:07.814Z,989.43
2016-02-01T04:56:07.816Z,989.44
2016-02-01T04:57:07.866Z,989.41
2016-02-01T04:58:07.900Z,989.48
2016-02-01T04:59:07.949Z,989.47
2016-02-01T05:00:07.889Z,989.5
2016-02-01T05:01:07.814Z,989.49
2016-02-01T05:02:07.881Z,989.49
2016-02-01T05:03:07.806Z,989.55
2016-02-01T05:04:07.810Z,989.55
2016-02-01T05:05:07.938Z,989.59
2016-02-01T05:06:07.879Z,989.64
2016-02-01T05:07:07.803Z,989.63
2016-02-01T05:08:07.900Z,989.66
2016-02-01T05:09:07.792Z,989.68
2016-02-01T05:10:07.874Z,989.73
2016-02-01T05:11:07.799Z,989.77
2016-02-01T05:12:07.865Z,989.78
2016-02-01T05:13:07.789Z,989.85
2016-02-01T05:14:07.792Z,989.89
2016-02-01T05:15:07.857Z,989.92
2016-02-01T05:16:07.782Z,989.9
2016-02-01T05:17:07.784Z,989.95
2016-02-01T05:18:07.787Z,989.98
2016-02-01T05:19:07.776Z,990.02
2016-02-01T05:20:07.778Z,990.03
2016-02-01T05:21:07.781Z,990.11
2016-02-01T05:22:07.786Z,990.17
2016-02-01T05:23:07.773Z,990.18
2016-02-01T05:24:07.839Z,990.16
2016-02-01T05:25:07.857Z,990.19
2016-02-01T05:26:07.763Z,990.22
2016-02-01T05:27:07.767Z,990.28
2016-02-01T05:28:07.832Z,990.29
2016-02-01T05:29:07.757Z,990.37
2016-02-01T05:30:07.759Z,990.44
2016-02-01T05:31:07.762Z,990.45
2016-02-01T05:32:07.828Z,990.44
2016-02-01T05:33:07.862Z,990.47
2016-02-01T05:34:07.834Z,990.52
2016-02-01T05:35:07.758Z,990.48
2016-02-01T05:36:07.746Z,990.49
2016-02-01T05:37:07.765Z,990.5
2016-02-01T05:38:07.738Z,990.55
2016-02-01T05:39:07.740Z,990.51
2016-02-01T05:40:07.836Z,990.52
2016-02-01T05:41:07.902Z,990.55
2016-02-01T05:42:07.764Z,990.55
2016-02-01T05:43:07.752Z,990.52
2016-02-01T05:44:07.738Z,990.57
2016-02-01T05:45:07.741Z,990.59
2016-02-01T05:46:07.745Z,990.6
2016-02-01T05:47:07.734Z,990.54
2016-02-01T05:48:07.757Z,990.5
2016-02-01T05:49:07.727Z,990.47
2016-02-01T05:50:07.809Z,990.47
2016-02-01T05:51:07.718Z,990.44
2016-02-01T05:52:07.802Z,990.47
2016-02-01T05:53:07.727Z,990.45
2016-02-01T05:54:07.808Z,990.48
2016-02-01T05:55:07.717Z,990.48
2016-02-01T05:56:07.737Z,990.51
2016-02-01T05:57:07.724Z,990.58
2016-02-01T05:58:07.712Z,990.57
2016-02-01T05:59:07.715Z,990.67
2016-02-01T06:00:07.750Z,990.63
2016-02-01T06:01:07.783Z,990.65
2016-02-01T06:02:07.713Z,990.67
2016-02-01T06:03:07.765Z,990.69
2016-02-01T06:04:07.705Z,990.68
2016-02-01T06:05:07.708Z,990.69
2016-02-01T06:06:07.710Z,990.67
2016-02-01T06:07:07.701Z,990.74
2016-02-01T06:08:07.704Z,990.74
2016-02-01T06:09:07.706Z,990.74
2016-02-01T06:10:07.709Z,990.71
2016-02-01T06:11:07.775Z,990.8
2016-02-01T06:12:07.841Z,990.79
2016-02-01T06:13:07.685Z,990.87
2016-02-01T06:14:07.688Z,990.87
2016-02-01T06:15:07.769Z,990.89
2016-02-01T06:16:07.681Z,990.91
2016-02-01T06:17:08.324Z,990.94
2016-02-01T06:18:07.686Z,990.91
2016-02-01T06:19:07.689Z,990.93
2016-02-01T06:20:07.677Z,990.99
2016-02-01T06:21:07.764Z,990.98
2016-02-01T06:22:07.814Z,990.98
2016-02-01T06:23:07.818Z,991.06
2016-02-01T06:24:07.680Z,991.09
2016-02-01T06:25:07.681Z,991.07
2016-02-01T06:26:07.668Z,991.1
2016-02-01T06:27:07.671Z,991.08
2016-02-01T06:28:07.662Z,991.09
2016-02-01T06:29:07.665Z,991.1
2016-02-01T06:30:07.667Z,991.1
2016-02-01T06:31:07.671Z,991.11
2016-02-01T06:32:07.675Z,991.13
2016-02-01T06:33:07.662Z,991.17
2016-02-01T06:34:07.665Z,991.19
2016-02-01T06:35:07.854Z,991.2
2016-02-01T06:36:07.654Z,991.27
2016-02-01T06:37:07.659Z,991.26
2016-02-01T06:38:07.662Z,991.34
2016-02-01T06:39:07.650Z,991.31
2016-02-01T06:40:07.652Z,991.26
2016-02-01T06:41:07.656Z,991.26
2016-02-01T06:42:07.659Z,991.28
2016-02-01T06:43:07.662Z,991.29
2016-02-01T06:44:07.652Z,991.36
2016-02-01T06:45:07.639Z,991.35
2016-02-01T06:46:07.642Z,991.34
2016-02-01T06:47:07.649Z,991.33
2016-02-01T06:48:07.652Z,991.28
2016-02-01T06:49:07.640Z,991.33
2016-02-01T06:50:07.643Z,991.34
2016-02-01T06:51:07.645Z,991.36
2016-02-01T06:52:07.632Z,991.38
2016-02-01T06:53:07.635Z,991.34
2016-02-01T06:54:07.638Z,991.37
2016-02-01T06:55:07.640Z,991.32
2016-02-01T06:56:07.643Z,991.35
2016-02-01T06:57:07.633Z,991.35
2016-02-01T06:58:07.635Z,991.41
2016-02-01T06:59:07.620Z,991.46
2016-02-01T07:00:07.623Z,991.44
2016-02-01T07:01:07.626Z,991.41
2016-02-01T07:02:07.629Z,991.43
2016-02-01T07:03:07.616Z,991.45
2016-02-01T07:04:07.619Z,991.42
2016-02-01T07:05:07.621Z,991.48
2016-02-01T07:06:07.624Z,991.52
2016-02-01T07:07:07.626Z,991.51
2016-02-01T07:08:07.613Z,991.52
2016-02-01T07:09:07.616Z,991.47
2016-02-01T07:10:07.618Z,991.52
2016-02-01T07:11:07.621Z,991.54
2016-02-01T07:12:07.609Z,991.56
2016-02-01T07:13:07.613Z,991.57
2016-02-01T07:14:07.616Z,991.63
2016-02-01T07:15:07.619Z,991.66
2016-02-01T07:16:07.606Z,991.66
2016-02-01T07:17:07.608Z,991.65
2016-02-01T07:18:07.608Z,991.61
2016-02-01T07:19:07.611Z,991.61
2016-02-01T07:20:07.598Z,991.69
2016-02-01T07:21:07.601Z,991.71
2016-02-01T07:22:07.604Z,991.78
2016-02-01T07:23:07.607Z,991.79
2016-02-01T07:24:07.595Z,991.78
2016-02-01T07:25:07.597Z,991.7
2016-02-01T07:26:07.600Z,991.8
2016-02-01T07:27:07.620Z,991.81
2016-02-01T07:28:07.607Z,991.77
2016-02-01T07:29:07.595Z,991.82
2016-02-01T07:30:07.598Z,991.82
2016-02-01T07:31:07.600Z,991.88
2016-02-01T07:32:07.603Z,991.88
2016-02-01T07:33:07.591Z,991.9
2016-02-01T07:34:07.599Z,991.86
2016-02-01T07:35:07.602Z,991.91
2016-02-01T07:36:07.590Z,991.93
2016-02-01T07:37:07.593Z,991.96
2016-02-01T07:38:07.596Z,991.98
2016-02-01T07:39:07.599Z,992.04
2016-02-01T07:40:07.585Z,992.07
2016-02-01T07:41:07.589Z,992.1
2016-02-01T07:42:07.591Z,992.12
2016-02-01T07:43:07.595Z,992.14
2016-02-01T07:44:07.599Z,992.17
2016-02-01T07:45:07.601Z,992.16
2016-02-01T07:46:07.588Z,992.17
2016-02-01T07:47:07.591Z,992.17
2016-02-01T07:48:07.578Z,992.2
2016-02-01T07:49:07.586Z,992.21
2016-02-01T07:50:07.589Z,992.25
2016-02-01T07:51:07.591Z,992.26
2016-02-01T07:52:07.578Z,992.3
2016-02-01T07:53:07.581Z,992.3
2016-02-01T07:54:07.585Z,992.36
2016-02-01T07:55:07.587Z,992.42
2016-02-01T07:56:07.590Z,992.43
2016-02-01T07:57:07.577Z,992.42
2016-02-01T07:58:07.579Z,992.43
2016-02-01T07:59:07.582Z,992.44
2016-02-01T08:00:07.585Z,992.46
2016-02-01T08:01:07.588Z,992.51
2016-02-01T08:02:07.575Z,992.5
2016-02-01T08:03:07.578Z,992.49
2016-02-01T08:04:07.577Z,992.51
2016-02-01T08:05:07.581Z,992.52
2016-02-01T08:06:07.565Z,992.51
2016-02-01T08:07:07.568Z,992.56
2016-02-01T08:08:07.574Z,992.63
2016-02-01T08:09:07.577Z,992.65
2016-02-01T08:10:07.565Z,992.69
2016-02-01T08:11:07.568Z,992.73
2016-02-01T08:12:07.586Z,992.69
2016-02-01T08:13:07.573Z,992.72
2016-02-01T08:14:07.576Z,992.74
2016-02-01T08:15:07.564Z,992.78
2016-02-01T08:16:07.566Z,992.79
2016-02-01T08:17:07.569Z,992.76
2016-02-01T08:18:07.572Z,992.77
2016-02-01T08:19:07.560Z,992.76
2016-02-01T08:20:07.563Z,992.79
2016-02-01T08:21:07.566Z,992.78
2016-02-01T08:22:07.569Z,992.74
2016-02-01T08:23:07.572Z,992.76
2016-02-01T08:24:07.560Z,992.78
2016-02-01T08:25:07.563Z,992.74
2016-02-01T08:26:07.565Z,992.72
2016-02-01T08:27:07.568Z,992.74
2016-02-01T08:28:07.555Z,992.73
2016-02-01T08:29:07.574Z,992.75
2016-02-01T08:30:07.560Z,992.72
2016-02-01T08:31:07.563Z,992.78
2016-02-01T08:32:07.567Z,992.74
2016-02-01T08:33:07.556Z,992.69
2016-02-01T08:34:07.559Z,992.68
2016-02-01T08:35:07.562Z,992.65
2016-02-01T08:36:07.565Z,992.65
2016-02-01T08:37:07.568Z,992.63
2016-02-01T08:38:07.571Z,992.65
2016-02-01T08:39:07.559Z,992.69
2016-02-01T08:40:07.562Z,992.67
2016-02-01T08:41:07.565Z,992.69
2016-02-01T08:42:07.567Z,992.69
2016-02-01T08:43:07.570Z,992.79
2016-02-01T08:44:07.558Z,992.75
2016-02-01T08:45:07.561Z,992.76
2016-02-01T08:46:07.563Z,992.7
2016-02-01T08:47:07.565Z,992.7
2016-02-01T08:48:07.570Z,992.68
2016-02-01T08:49:07.558Z,992.73
2016-02-01T08:50:07.560Z,992.75
2016-02-01T08:51:07.563Z,992.73
2016-02-01T08:52:07.566Z,992.72
2016-02-01T08:53:07.554Z,992.72
2016-02-01T08:54:07.557Z,992.73
2016-02-01T08:55:07.562Z,992.72
2016-02-01T08:56:07.564Z,992.76
2016-02-01T08:57:07.567Z,992.78
2016-02-01T08:58:07.554Z,992.77
2016-02-01T08:59:07.556Z,992.88
2016-02-01T09:00:07.560Z,992.89
2016-02-01T09:01:07.563Z,992.89
2016-02-01T09:02:07.565Z,992.89
2016-02-01T09:03:07.568Z,992.86
2016-02-01T09:04:07.572Z,992.89
2016-02-01T09:05:07.558Z,992.91
2016-02-01T09:06:07.561Z,992.92
2016-02-01T09:07:07.564Z,992.93
2016-02-01T09:08:07.566Z,992.94
2016-02-01T09:09:07.571Z,993
2016-02-01T09:10:07.559Z,992.99
2016-02-01T09:11:07.561Z,993.02
2016-02-01T09:12:07.564Z,993.08
2016-02-01T09:13:07.567Z,993.11
2016-02-01T09:14:07.570Z,993.15
2016-02-01T09:15:07.573Z,993.14
2016-02-01T09:16:07.560Z,993.14
2016-02-01T09:17:07.562Z,993.2
2016-02-01T09:18:07.566Z,993.21
2016-02-01T09:19:07.567Z,993.2
2016-02-01T09:20:07.562Z,993.13
2016-02-01T09:21:07.565Z,993.1
2016-02-01T09:22:07.573Z,993.11
2016-02-01T09:23:07.575Z,993.15
2016-02-01T09:24:07.562Z,993.18
2016-02-01T09:25:07.566Z,993.15
2016-02-01T09:26:07.566Z,993.21
2016-02-01T09:27:07.569Z,993.28
2016-02-01T09:28:07.572Z,993.29
2016-02-01T09:29:07.577Z,993.35
2016-02-01T09:30:07.566Z,993.38
2016-02-01T09:31:07.563Z,993.37
2016-02-01T09:32:07.552Z,993.28
2016-02-01T09:33:07.540Z,993.27
2016-02-01T09:34:07.545Z,993.29
2016-02-01T09:35:07.519Z,993.25
2016-02-01T09:36:07.513Z,993.17
2016-02-01T09:37:07.511Z,993.16
2016-02-01T09:38:07.509Z,993.1
2016-02-01T09:39:07.490Z,993.1
2016-02-01T09:40:07.488Z,993.12
2016-02-01T09:41:07.492Z,993.14
2016-02-01T09:42:07.493Z,993.19
2016-02-01T09:43:07.494Z,993.18
2016-02-01T09:44:07.479Z,993.19
2016-02-01T09:45:07.480Z,993.22
2016-02-01T09:46:07.482Z,993.15
2016-02-01T09:47:07.488Z,993.11
2016-02-01T09:48:07.489Z,993.1
2016-02-01T09:49:07.492Z,992.97
2016-02-01T09:50:07.480Z,992.97
2016-02-01T09:51:07.492Z,992.98
2016-02-01T09:52:07.495Z,993.06
2016-02-01T09:53:07.497Z,993.11
2016-02-01T09:54:07.485Z,993.1
2016-02-01T09:55:07.488Z,993.14
2016-02-01T09:56:07.505Z,993.17
2016-02-01T09:57:07.493Z,993.23
2016-02-01T09:58:07.496Z,993.21
2016-02-01T09:59:07.499Z,993.19
2016-02-01T10:00:07.502Z,993.15
2016-02-01T10:01:07.491Z,993.24
2016-02-01T10:02:07.493Z,993.26
2016-02-01T10:03:07.512Z,993.29
2016-02-01T10:04:07.499Z,993.35
2016-02-01T10:05:07.501Z,993.37
2016-02-01T10:06:07.505Z,993.38
2016-02-01T10:07:07.508Z,993.37
2016-02-01T10:08:07.510Z,993.42
2016-02-01T10:09:07.513Z,993.47
2016-02-01T10:10:07.505Z,993.47
2016-02-01T10:11:07.507Z,993.55
2016-02-01T10:12:07.510Z,993.52
2016-02-01T10:13:07.513Z,993.41
2016-02-01T10:14:07.515Z,993.41
2016-02-01T10:15:07.518Z,993.45
2016-02-01T10:16:07.521Z,993.49
2016-02-01T10:17:07.523Z,993.5
2016-02-01T10:18:07.526Z,993.44
2016-02-01T10:19:07.530Z,993.36
2016-02-01T10:20:07.533Z,993.39
2016-02-01T10:21:07.518Z,993.43
2016-02-01T10:22:07.523Z,993.37
2016-02-01T10:23:07.525Z,993.37
2016-02-01T10:24:07.528Z,993.36
2016-02-01T10:25:07.531Z,993.41
2016-02-01T10:26:07.535Z,993.45
2016-02-01T10:27:07.537Z,993.39
2016-02-01T10:28:07.540Z,993.36
2016-02-01T10:29:07.543Z,993.36
2016-02-01T10:30:07.545Z,993.39
2016-02-01T10:31:07.535Z,993.36
2016-02-01T10:32:07.538Z,993.36
2016-02-01T10:33:07.540Z,993.34
2016-02-01T10:34:07.543Z,993.34
2016-02-01T10:35:07.547Z,993.38
2016-02-01T10:36:07.545Z,993.33
2016-02-01T10:37:07.552Z,993.32
2016-02-01T10:38:07.571Z,993.3
2016-02-01T10:39:07.607Z,993.28
2016-02-01T10:40:07.954Z,993.25
2016-02-01T10:41:07.550Z,993.28
2016-02-01T10:42:07.553Z,993.25
2016-02-01T10:43:07.556Z,993.27
2016-02-01T10:44:07.542Z,993.26
2016-02-01T10:45:07.552Z,993.32
2016-02-01T10:46:07.554Z,993.35
2016-02-01T10:47:07.557Z,993.35
2016-02-01T10:48:07.560Z,993.3
2016-02-01T10:49:07.562Z,993.22
2016-02-01T10:50:07.565Z,993.15
2016-02-01T10:51:07.689Z,993.22
2016-02-01T10:52:07.567Z,993.28
2016-02-01T10:53:07.569Z,993.28
2016-02-01T10:54:07.557Z,993.35
2016-02-01T10:55:07.575Z,993.34
2016-02-01T10:56:07.581Z,993.28
2016-02-01T10:57:07.568Z,993.16
2016-02-01T10:58:07.571Z,993.02
2016-02-01T10:59:07.574Z,992.99
2016-02-01T11:00:07.578Z,993.07
2016-02-01T11:01:07.580Z,993.11
2016-02-01T11:02:07.583Z,993.16
2016-02-01T11:03:07.586Z,993.15
2016-02-01T11:04:07.588Z,993.11
2016-02-01T11:05:07.575Z,993.11
2016-02-01T11:06:07.609Z,993.16
2016-02-01T11:07:07.581Z,993.17
2016-02-01T11:08:07.599Z,993.14
2016-02-01T11:09:07.585Z,993.18
2016-02-01T11:10:07.604Z,993.18
2016-02-01T11:11:07.591Z,993.13
2016-02-01T11:12:07.596Z,993.13
2016-02-01T11:13:07.599Z,993.14
2016-02-01T11:14:07.601Z,993.11
2016-02-01T11:15:07.604Z,993.15
2016-02-01T11:16:07.627Z,993.16
2016-02-01T11:17:07.613Z,993.17
2016-02-01T11:18:07.616Z,993.18
2016-02-01T11:19:07.603Z,993.16
2016-02-01T11:20:07.622Z,993.23
2016-02-01T11:21:07.612Z,993.24
2016-02-01T11:22:07.615Z,993.23
2016-02-01T11:23:07.604Z,993.18
2016-02-01T11:24:07.622Z,993.15
2016-02-01T11:25:07.813Z,993.19
2016-02-01T11:26:07.613Z,993.16
2016-02-01T11:27:07.615Z,993.15
2016-02-01T11:28:07.993Z,993.18
2016-02-01T11:29:08.151Z,993.17
2016-02-01T11:30:07.654Z,993.17
2016-02-01T11:31:07.626Z,993.2
2016-02-01T11:32:07.632Z,993.21
2016-02-01T11:33:07.634Z,993.25
2016-02-01T11:34:07.637Z,993.21
2016-02-01T11:35:07.640Z,993.22
2016-02-01T11:36:07.720Z,993.23
2016-02-01T11:37:07.724Z,993.22
2016-02-01T11:38:07.647Z,993.2
2016-02-01T11:39:07.651Z,993.16
2016-02-01T11:40:07.653Z,993.15
2016-02-01T11:41:07.642Z,993.18
2016-02-01T11:42:07.648Z,993.12
2016-02-01T11:43:07.667Z,993.12
2016-02-01T11:44:07.669Z,993.15
2016-02-01T11:45:07.766Z,993.17
2016-02-01T11:46:07.753Z,993.16
2016-02-01T11:47:07.662Z,993.16
2016-02-01T11:48:08.166Z,993.14
2016-02-01T11:49:07.668Z,993.08
2016-02-01T11:50:07.671Z,993.06
2016-02-01T11:51:07.673Z,993.03
2016-02-01T11:52:07.676Z,993.09
2016-02-01T11:53:07.677Z,993.06
2016-02-01T11:54:07.695Z,993.04
2016-02-01T11:55:07.682Z,992.99
2016-02-01T11:56:07.685Z,992.99
2016-02-01T11:57:07.691Z,992.94
2016-02-01T11:58:07.693Z,992.91
2016-02-01T11:59:07.696Z,992.92
2016-02-01T12:00:07.699Z,992.93
2016-02-01T12:01:07.702Z,992.91
2016-02-01T12:02:07.689Z,992.89
2016-02-01T12:03:07.708Z,992.88
2016-02-01T12:04:07.758Z,992.8
2016-02-01T12:05:07.728Z,992.79
2016-02-01T12:06:07.778Z,992.86
2016-02-01T12:07:07.705Z,992.88
2016-02-01T12:08:07.708Z,992.79
2016-02-01T12:09:07.727Z,992.79
2016-02-01T12:10:07.714Z,992.75
2016-02-01T12:11:07.716Z,992.74
2016-02-01T12:12:07.719Z,992.78
2016-02-01T12:13:07.785Z,992.81
2016-02-01T12:14:07.726Z,992.85
2016-02-01T12:15:07.728Z,992.8
2016-02-01T12:16:07.731Z,992.84
2016-02-01T12:17:07.734Z,992.85
2016-02-01T12:18:07.739Z,992.83
2016-02-01T12:19:07.742Z,992.8
2016-02-01T12:20:07.744Z,992.77
2016-02-01T12:21:07.747Z,992.73
2016-02-01T12:22:07.750Z,992.76
2016-02-01T12:23:07.756Z,992.72
2016-02-01T12:24:07.752Z,992.7
2016-02-01T12:25:07.758Z,992.79
2016-02-01T12:26:07.761Z,992.79
2016-02-01T12:27:07.966Z,992.77
2016-02-01T12:28:07.766Z,992.7
2016-02-01T12:29:07.785Z,992.7
2016-02-01T12:30:07.772Z,992.64